createdAt,value
2019-03-27T00:01:09.058Z,13.27
2019-03-27T00:03:38.955Z,11.37
2019-03-27T00:06:10.312Z,12.63
2019-03-27T00:08:40.503Z,14.33
2019-03-27T00:11:10.492Z,13.17
2019-03-27T00:13:40.454Z,11.30
2019-03-27T00:16:10.322Z,10.73
2019-03-27T00:18:40.478Z,12.07
2019-03-27T00:21:10.451Z,11.50
2019-03-27T00:23:40.596Z,11.33
2019-03-27T00:26:10.474Z,11.33
2019-03-27T00:28:40.627Z,10.93
2019-03-27T00:31:11.997Z,11.20
2019-03-27T00:33:42.190Z,11.10
2019-03-27T00:36:12.090Z,11.43
2019-03-27T00:38:42.136Z,9.93
2019-03-27T00:41:12.110Z,11.17
2019-03-27T00:43:42.417Z,10.90
2019-03-27T00:46:12.403Z,12.23
2019-03-27T00:48:44.322Z,10.90
2019-03-27T00:51:14.232Z,11.03
2019-03-27T00:53:44.279Z,12.10
2019-03-27T00:56:14.255Z,10.33
2019-03-27T00:58:44.270Z,11.73
2019-03-27T01:01:14.940Z,10.80
2019-03-27T01:03:44.923Z,13.40
2019-03-27T01:06:14.936Z,16.33
2019-03-27T01:08:44.876Z,15.17
2019-03-27T01:11:14.787Z,14.53
2019-03-27T01:13:44.911Z,12.50
2019-03-27T01:16:15.003Z,12.33
2019-03-27T01:18:45.039Z,12.17
2019-03-27T01:21:14.930Z,12.83
2019-03-27T01:23:44.912Z,11.73
2019-03-27T01:26:14.763Z,13.00
2019-03-27T01:28:44.673Z,13.90
2019-03-27T01:31:14.659Z,11.47
2019-03-27T01:33:44.583Z,11.30
2019-03-27T01:36:14.668Z,13.63
2019-03-27T01:38:44.531Z,10.27
2019-03-27T01:41:14.730Z,11.10
2019-03-27T01:43:44.691Z,11.60
2019-03-27T01:46:14.631Z,10.50
2019-03-27T01:48:44.498Z,11.03
2019-03-27T01:51:14.472Z,11.00
2019-03-27T01:53:44.336Z,12.30
2019-03-27T01:56:14.376Z,12.23
2019-03-27T01:58:44.463Z,10.80
2019-03-27T02:01:14.418Z,11.23
2019-03-27T02:03:44.304Z,12.40
2019-03-27T02:06:14.451Z,11.50
2019-03-27T02:08:45.980Z,10.43
2019-03-27T02:11:18.723Z,11.40
2019-03-27T02:13:48.595Z,12.23
2019-03-27T02:16:18.636Z,12.13
2019-03-27T02:18:48.675Z,11.53
2019-03-27T02:21:18.665Z,11.93
2019-03-27T02:23:48.535Z,12.83
2019-03-27T02:26:18.615Z,13.33
2019-03-27T02:28:50.016Z,11.80
2019-03-27T02:31:19.974Z,12.33
2019-03-27T02:33:50.015Z,12.00
2019-03-27T02:36:20.154Z,13.10
2019-03-27T02:38:50.211Z,12.07
2019-03-27T02:41:20.339Z,11.93
2019-03-27T02:43:50.206Z,13.00
2019-03-27T02:46:25.143Z,12.60
2019-03-27T02:48:52.051Z,12.33
2019-03-27T02:51:22.116Z,12.80
2019-03-27T02:53:52.096Z,12.57
2019-03-27T02:56:22.328Z,12.73
2019-03-27T02:58:52.237Z,11.67
2019-03-27T03:01:24.002Z,12.83
2019-03-27T03:03:53.932Z,13.77
2019-03-27T03:06:23.955Z,11.60
2019-03-27T03:08:53.888Z,12.13
2019-03-27T03:11:23.784Z,11.57
2019-03-27T03:13:53.621Z,12.40
2019-03-27T03:16:40.891Z,12.17
2019-03-27T03:18:56.073Z,12.50
2019-03-27T03:21:26.950Z,13.07
2019-03-27T03:23:56.916Z,11.90
2019-03-27T03:26:26.936Z,12.77
2019-03-27T03:28:57.068Z,13.60
2019-03-27T03:31:27.216Z,12.20
2019-03-27T03:33:57.216Z,12.63
2019-03-27T03:36:27.451Z,12.30
2019-03-27T03:38:57.328Z,12.70
2019-03-27T03:41:27.576Z,12.23
2019-03-27T03:43:57.582Z,12.63
2019-03-27T03:46:28.767Z,12.70
2019-03-27T03:48:58.796Z,12.50
2019-03-27T03:51:29.064Z,11.13
2019-03-27T03:53:59.219Z,12.17
2019-03-27T03:56:29.754Z,12.37
2019-03-27T03:59:00.692Z,12.20
2019-03-27T04:01:31.812Z,12.60
2019-03-27T04:04:03.317Z,13.07
2019-03-27T04:06:33.280Z,12.60
2019-03-27T04:09:03.219Z,12.47
2019-03-27T04:11:36.071Z,12.43
2019-03-27T04:14:06.024Z,13.07
2019-03-27T04:16:36.042Z,14.53
2019-03-27T04:19:05.997Z,15.80
2019-03-27T04:21:36.015Z,15.13
2019-03-27T04:24:05.961Z,15.87
2019-03-27T04:26:36.211Z,16.00
2019-03-27T04:29:06.161Z,15.17
2019-03-27T04:31:36.193Z,13.53
2019-03-27T04:34:06.115Z,13.47
2019-03-27T04:36:36.192Z,12.73
2019-03-27T04:39:06.160Z,12.57
2019-03-27T04:41:38.226Z,12.07
2019-03-27T04:44:08.146Z,13.70
2019-03-27T04:46:38.119Z,12.47
2019-03-27T04:49:08.095Z,14.17
2019-03-27T04:51:39.579Z,12.73
2019-03-27T04:54:09.807Z,13.10
2019-03-27T04:56:39.966Z,13.90
2019-03-27T04:59:09.935Z,13.77
2019-03-27T05:01:40.769Z,13.77
2019-03-27T05:04:10.813Z,14.70
2019-03-27T05:06:40.855Z,14.07
2019-03-27T05:09:10.743Z,13.83
2019-03-27T05:11:40.683Z,14.07
2019-03-27T05:14:10.634Z,14.70
2019-03-27T05:16:40.817Z,14.63
2019-03-27T05:19:10.757Z,15.67
2019-03-27T05:21:40.861Z,14.67
2019-03-27T05:24:10.942Z,13.20
2019-03-27T05:26:41.091Z,14.40
2019-03-27T05:29:11.110Z,13.07
2019-03-27T05:31:41.235Z,13.60
2019-03-27T05:34:11.142Z,13.87
2019-03-27T05:36:43.240Z,13.23
2019-03-27T05:39:14.770Z,14.83
2019-03-27T05:41:44.796Z,13.30
2019-03-27T05:44:15.842Z,13.70
2019-03-27T05:46:45.964Z,14.80
2019-03-27T05:49:15.933Z,14.67
2019-03-27T05:51:45.966Z,15.13
2019-03-27T05:54:15.983Z,15.70
2019-03-27T05:56:45.999Z,15.00
2019-03-27T05:59:15.979Z,14.50
2019-03-27T06:01:46.169Z,14.07
2019-03-27T06:04:17.316Z,14.40
2019-03-27T06:06:47.387Z,14.83
2019-03-27T06:09:17.412Z,14.27
2019-03-27T06:11:47.612Z,14.43
2019-03-27T06:14:17.676Z,14.90
2019-03-27T06:16:47.683Z,15.00
2019-03-27T06:19:17.618Z,15.30
2019-03-27T06:21:48.258Z,14.70
2019-03-27T06:24:21.112Z,14.07
2019-03-27T06:26:51.318Z,15.23
2019-03-27T06:29:21.291Z,14.33
2019-03-27T06:31:53.402Z,16.23
2019-03-27T06:34:23.448Z,15.10
2019-03-27T06:36:53.337Z,14.37
2019-03-27T06:39:23.496Z,14.57
2019-03-27T06:41:53.571Z,15.97
2019-03-27T06:44:23.605Z,14.67
2019-03-27T06:46:53.532Z,14.90
2019-03-27T06:49:23.603Z,15.93
2019-03-27T06:51:53.592Z,16.10
2019-03-27T06:54:23.643Z,18.10
2019-03-27T06:56:53.702Z,21.60
2019-03-27T06:59:23.631Z,20.00
2019-03-27T07:01:53.827Z,18.27
2019-03-27T07:04:23.784Z,21.43
2019-03-27T07:06:53.938Z,19.10
2019-03-27T07:09:24.027Z,19.43
2019-03-27T07:11:53.987Z,19.30
2019-03-27T07:14:23.962Z,19.33
2019-03-27T07:16:53.890Z,18.93
2019-03-27T07:19:23.880Z,19.93
2019-03-27T07:21:53.778Z,18.47
2019-03-27T07:24:23.961Z,17.40
2019-03-27T07:26:53.943Z,17.07
2019-03-27T07:29:23.957Z,18.03
2019-03-27T07:31:54.014Z,17.73
2019-03-27T07:34:25.176Z,16.63
2019-03-27T07:36:56.297Z,16.87
2019-03-27T07:39:26.348Z,17.17
2019-03-27T07:41:56.282Z,16.90
2019-03-27T07:44:26.520Z,16.47
2019-03-27T07:46:56.532Z,15.33
2019-03-27T07:49:26.676Z,16.20
2019-03-27T07:51:56.666Z,16.27
2019-03-27T07:54:26.876Z,16.57
2019-03-27T07:56:56.918Z,14.80
2019-03-27T07:59:26.947Z,14.93
2019-03-27T08:01:56.842Z,15.43
2019-03-27T08:04:26.995Z,14.70
2019-03-27T08:07:00.226Z,14.00
2019-03-27T08:09:30.289Z,14.37
2019-03-27T08:12:00.227Z,14.07
2019-03-27T08:14:30.340Z,13.90
2019-03-27T08:17:00.135Z,14.67
2019-03-27T08:19:30.587Z,12.30
2019-03-27T08:22:00.551Z,11.90
2019-03-27T08:24:30.436Z,13.17
2019-03-27T08:27:00.334Z,11.77
2019-03-27T08:29:30.307Z,11.50
2019-03-27T08:32:00.160Z,10.60
2019-03-27T08:34:30.109Z,9.80
2019-03-27T08:37:00.031Z,10.70
2019-03-27T08:39:30.196Z,9.87
2019-03-27T08:42:00.137Z,11.40
2019-03-27T08:44:30.035Z,11.43
2019-03-27T08:46:59.948Z,10.10
2019-03-27T08:49:29.939Z,9.97
2019-03-27T08:51:59.827Z,10.43
2019-03-27T08:54:29.939Z,10.93
2019-03-27T08:56:59.851Z,10.07
2019-03-27T08:59:29.748Z,9.53
2019-03-27T09:01:59.694Z,10.90
2019-03-27T09:04:29.782Z,10.90
2019-03-27T09:06:59.805Z,9.97
2019-03-27T09:09:29.666Z,10.80
2019-03-27T09:11:59.563Z,10.10
2019-03-27T09:14:29.632Z,10.93
2019-03-27T09:16:59.575Z,10.43
2019-03-27T09:19:35.671Z,10.67
2019-03-27T09:22:01.286Z,11.00
2019-03-27T09:24:31.151Z,10.47
2019-03-27T09:27:01.087Z,10.97
2019-03-27T09:29:30.899Z,9.40
2019-03-27T09:32:01.201Z,9.90
2019-03-27T09:34:31.044Z,11.63
2019-03-27T09:37:01.180Z,10.13
2019-03-27T09:39:31.162Z,9.40
2019-03-27T09:42:01.133Z,11.00
2019-03-27T09:44:31.104Z,10.50
2019-03-27T09:47:01.011Z,10.43
2019-03-27T09:49:30.983Z,10.27
2019-03-27T09:52:01.000Z,9.50
2019-03-27T09:54:31.927Z,9.07
2019-03-27T09:57:01.945Z,8.30
2019-03-27T09:59:31.772Z,8.83
2019-03-27T10:02:01.685Z,9.23
2019-03-27T10:04:31.686Z,9.13
2019-03-27T10:07:01.706Z,7.97
2019-03-27T10:09:31.729Z,8.13
2019-03-27T10:12:02.763Z,9.77
2019-03-27T10:14:32.851Z,9.97
2019-03-27T10:17:02.980Z,7.07
2019-03-27T10:19:32.963Z,8.47
2019-03-27T10:22:03.029Z,8.07
2019-03-27T10:24:33.099Z,8.58
2019-03-27T10:27:03.300Z,7.00
2019-03-27T10:29:33.353Z,6.23
2019-03-27T10:32:06.283Z,48.20
2019-03-27T10:34:36.237Z,19.83
2019-03-27T10:37:06.395Z,14.43
2019-03-27T10:39:36.353Z,25.83
2019-03-27T10:42:07.068Z,9.70
2019-03-27T10:44:37.089Z,15.13
2019-03-27T10:47:07.270Z,8.70
2019-03-27T10:49:37.223Z,10.20
2019-03-27T10:52:07.218Z,31.45
2019-03-27T10:54:37.149Z,10.57
2019-03-27T10:57:07.260Z,9.67
2019-03-27T10:59:37.226Z,8.20
2019-03-27T11:02:07.498Z,18.03
2019-03-27T11:04:37.487Z,9.73
2019-03-27T11:07:08.998Z,10.40
2019-03-27T11:09:39.004Z,14.53
2019-03-27T11:12:09.166Z,8.63
2019-03-27T11:14:39.122Z,5.17
2019-03-27T11:17:09.193Z,5.47
2019-03-27T11:19:39.368Z,4.93
2019-03-27T11:22:09.347Z,5.70
2019-03-27T11:24:39.374Z,5.87
2019-03-27T11:27:09.463Z,4.70
2019-03-27T11:29:39.441Z,6.67
2019-03-27T11:32:09.464Z,6.53
2019-03-27T11:34:39.448Z,4.57
2019-03-27T11:37:09.430Z,5.13
2019-03-27T11:39:39.558Z,5.10
2019-03-27T11:42:09.750Z,4.10
2019-03-27T11:44:39.991Z,3.93
2019-03-27T11:47:10.030Z,3.50
2019-03-27T11:49:40.256Z,4.53
2019-03-27T11:52:10.151Z,5.20
2019-03-27T11:54:40.208Z,4.60
2019-03-27T11:57:10.241Z,5.47
2019-03-27T11:59:52.934Z,5.80
2019-03-27T12:02:12.051Z,4.63
2019-03-27T12:04:42.905Z,4.27
2019-03-27T12:07:12.819Z,14.27
2019-03-27T12:09:44.872Z,14.00
2019-03-27T12:12:16.032Z,6.87
2019-03-27T12:14:46.067Z,5.60
2019-03-27T12:17:15.976Z,6.57
2019-03-27T12:19:45.963Z,6.07
2019-03-27T12:22:15.888Z,5.20
2019-03-27T12:24:45.836Z,9.80
2019-03-27T12:27:15.936Z,15.43
2019-03-27T12:29:48.915Z,39.77
2019-03-27T12:32:24.941Z,14.03
2019-03-27T12:34:53.743Z,8.10
2019-03-27T12:37:23.720Z,6.83
2019-03-27T12:39:55.439Z,7.50
2019-03-27T12:42:25.318Z,6.77
2019-03-27T12:44:55.375Z,7.83
2019-03-27T12:47:25.264Z,5.57
2019-03-27T12:49:55.436Z,6.40
2019-03-27T12:52:25.489Z,5.27
2019-03-27T12:54:55.634Z,6.13
2019-03-27T12:57:25.549Z,4.70
2019-03-27T12:59:55.748Z,5.20
2019-03-27T13:02:25.679Z,5.13
2019-03-27T13:04:55.827Z,5.00
2019-03-27T13:07:25.902Z,3.80
2019-03-27T13:09:55.971Z,4.23
2019-03-27T13:12:25.941Z,4.70
2019-03-27T13:14:56.114Z,3.70
2019-03-27T13:17:25.975Z,3.73
2019-03-27T13:19:56.059Z,4.07
2019-03-27T13:22:26.062Z,3.13
2019-03-27T13:24:56.094Z,3.50
2019-03-27T13:27:26.135Z,3.97
2019-03-27T13:29:57.323Z,4.67
2019-03-27T13:32:27.183Z,4.43
2019-03-27T13:34:57.365Z,10.00
2019-03-27T13:37:27.342Z,14.47
2019-03-27T13:39:59.949Z,21.57
2019-03-27T13:42:29.146Z,14.30
2019-03-27T13:44:59.270Z,7.87
2019-03-27T13:47:29.329Z,10.77
2019-03-27T13:49:59.394Z,13.30
2019-03-27T13:52:29.345Z,7.93
2019-03-27T13:54:59.463Z,11.30
2019-03-27T13:57:29.432Z,16.13
2019-03-27T13:59:59.445Z,11.70
2019-03-27T14:02:29.790Z,6.23
2019-03-27T14:05:03.767Z,5.20
2019-03-27T14:07:33.566Z,6.67
2019-03-27T14:10:03.611Z,6.40
2019-03-27T14:12:33.505Z,8.37
2019-03-27T14:15:03.547Z,5.85
2019-03-27T14:17:33.439Z,7.00
2019-03-27T14:20:03.408Z,13.23
2019-03-27T14:22:33.373Z,21.73
2019-03-27T14:25:04.028Z,12.80
2019-03-27T14:27:33.911Z,29.23
2019-03-27T14:30:05.368Z,20.40
2019-03-27T14:32:35.279Z,18.83
2019-03-27T14:35:05.394Z,6.13
2019-03-27T14:37:35.381Z,5.80
2019-03-27T14:40:06.197Z,5.37
2019-03-27T14:42:36.181Z,5.43
2019-03-27T14:45:08.407Z,6.20
2019-03-27T14:47:38.375Z,6.73
2019-03-27T14:50:08.599Z,4.90
2019-03-27T14:52:38.555Z,5.00
2019-03-27T14:55:08.745Z,4.27
2019-03-27T14:57:38.869Z,4.43
2019-03-27T15:00:09.707Z,3.77
2019-03-27T15:02:39.821Z,5.20
2019-03-27T15:05:09.954Z,4.43
2019-03-27T15:07:39.818Z,4.87
2019-03-27T15:10:09.912Z,6.23
2019-03-27T15:12:39.983Z,3.40
2019-03-27T15:15:10.415Z,3.90
2019-03-27T15:17:40.459Z,4.73
2019-03-27T15:20:10.417Z,3.63
2019-03-27T15:22:40.277Z,4.30
2019-03-27T15:25:10.344Z,3.93
2019-03-27T15:27:40.188Z,3.53
2019-03-27T15:30:12.951Z,3.90
2019-03-27T15:32:43.078Z,3.90
2019-03-27T15:35:13.161Z,3.60
2019-03-27T15:37:43.107Z,4.00
2019-03-27T15:40:13.576Z,5.10
2019-03-27T15:42:43.583Z,3.87
2019-03-27T15:45:13.565Z,4.50
2019-03-27T15:47:43.554Z,4.57
2019-03-27T15:50:13.693Z,4.47
2019-03-27T15:52:43.698Z,4.43
2019-03-27T15:55:13.625Z,4.17
2019-03-27T15:57:43.644Z,4.27
2019-03-27T16:00:13.883Z,6.40
2019-03-27T16:02:43.803Z,5.17
2019-03-27T16:05:15.095Z,6.10
2019-03-27T16:07:45.030Z,4.30
2019-03-27T16:10:18.241Z,4.40
2019-03-27T16:12:46.815Z,4.90
2019-03-27T16:15:19.424Z,4.53
2019-03-27T16:17:49.311Z,3.83
2019-03-27T16:20:19.145Z,4.00
2019-03-27T16:22:50.829Z,5.37
2019-03-27T16:25:20.687Z,5.43
2019-03-27T16:27:50.864Z,4.80
2019-03-27T16:30:22.640Z,5.10
2019-03-27T16:32:52.587Z,5.23
2019-03-27T16:35:22.548Z,4.00
2019-03-27T16:37:52.404Z,3.97
2019-03-27T16:40:39.666Z,4.93
2019-03-27T16:43:09.563Z,5.20
2019-03-27T16:45:39.470Z,5.30
2019-03-27T16:48:09.627Z,4.20
2019-03-27T16:50:39.688Z,4.50
2019-03-27T16:53:09.555Z,4.47
2019-03-27T16:55:39.390Z,4.00
2019-03-27T16:58:09.296Z,4.97
2019-03-27T17:00:39.291Z,4.67
2019-03-27T17:03:09.248Z,5.03
2019-03-27T17:05:53.044Z,5.00
2019-03-27T17:08:10.749Z,4.87
2019-03-27T17:10:40.669Z,4.77
2019-03-27T17:13:10.633Z,4.37
2019-03-27T17:15:40.406Z,4.60
2019-03-27T17:18:10.279Z,4.13
2019-03-27T17:20:40.317Z,5.33
2019-03-27T17:23:18.061Z,4.53
2019-03-27T17:25:41.826Z,4.80
2019-03-27T17:28:11.953Z,5.90
2019-03-27T17:30:41.909Z,5.23
2019-03-27T17:33:13.220Z,5.50
2019-03-27T17:35:43.225Z,4.93
2019-03-27T17:38:13.121Z,4.17
2019-03-27T17:40:42.933Z,5.27
2019-03-27T17:43:14.117Z,5.33
2019-03-27T17:45:44.104Z,4.57
2019-03-27T17:48:13.981Z,4.13
2019-03-27T17:50:43.885Z,4.60
2019-03-27T17:53:13.932Z,4.47
2019-03-27T17:55:43.862Z,6.07
2019-03-27T17:58:13.852Z,5.30
2019-03-27T18:00:44.797Z,5.20
2019-03-27T18:03:15.019Z,5.47
2019-03-27T18:05:46.440Z,8.90
2019-03-27T18:08:16.882Z,10.17
2019-03-27T18:10:46.814Z,9.43
2019-03-27T18:13:16.920Z,9.03
2019-03-27T18:15:46.947Z,8.87
2019-03-27T18:20:52.808Z,24.33
2019-03-27T18:23:22.940Z,13.47
2019-03-27T18:25:52.862Z,13.00
2019-03-27T18:28:22.855Z,12.77
2019-03-27T18:30:54.410Z,11.53
2019-03-27T18:33:26.870Z,14.30
2019-03-27T18:35:56.834Z,11.53
2019-03-27T18:38:29.802Z,9.37
2019-03-27T18:40:59.789Z,11.97
2019-03-27T18:43:29.791Z,12.03
2019-03-27T18:45:59.820Z,8.73
2019-03-27T18:48:30.063Z,15.73
2019-03-27T18:51:00.156Z,10.30
2019-03-27T18:53:30.234Z,6.00
2019-03-27T18:56:00.136Z,6.20
2019-03-27T18:58:30.251Z,6.60
2019-03-27T19:01:00.163Z,6.50
2019-03-27T19:03:30.279Z,6.03
2019-03-27T19:06:00.418Z,7.63
2019-03-27T19:08:30.515Z,6.67
2019-03-27T19:11:00.587Z,6.67
2019-03-27T19:13:30.735Z,8.23
2019-03-27T19:16:00.719Z,6.23
2019-03-27T19:18:30.758Z,7.17
2019-03-27T19:21:00.664Z,7.23
2019-03-27T19:23:30.687Z,8.07
2019-03-27T19:26:00.718Z,8.27
2019-03-27T19:28:30.879Z,7.77
2019-03-27T19:31:01.105Z,7.80
2019-03-27T19:33:31.106Z,6.83
2019-03-27T19:36:01.015Z,7.13
2019-03-27T19:38:31.025Z,6.70
2019-03-27T19:41:01.012Z,7.27
2019-03-27T19:43:31.031Z,6.10
2019-03-27T19:46:00.959Z,6.30
2019-03-27T19:48:31.004Z,7.23
2019-03-27T19:51:00.970Z,6.67
2019-03-27T19:53:31.015Z,6.80
2019-03-27T19:56:00.884Z,5.43
2019-03-27T19:58:30.944Z,5.87
2019-03-27T20:01:00.902Z,7.30
2019-03-27T20:03:34.410Z,6.63
2019-03-27T20:06:02.661Z,7.23
2019-03-27T20:08:32.797Z,7.93
2019-03-27T20:11:02.931Z,6.23
2019-03-27T20:13:33.053Z,6.23
2019-03-27T20:16:03.351Z,6.40
2019-03-27T20:18:33.438Z,6.33
2019-03-27T20:21:03.449Z,6.13
2019-03-27T20:23:33.581Z,6.80
2019-03-27T20:26:03.578Z,6.20
2019-03-27T20:28:33.579Z,6.60
2019-03-27T20:31:03.610Z,6.60
2019-03-27T20:33:33.808Z,6.30
2019-03-27T20:36:03.799Z,6.53
2019-03-27T20:38:33.895Z,6.80
2019-03-27T20:41:04.267Z,8.33
2019-03-27T20:43:34.315Z,8.27
2019-03-27T20:46:04.474Z,9.03
2019-03-27T20:48:35.176Z,8.40
2019-03-27T20:51:05.462Z,7.37
2019-03-27T20:53:35.537Z,7.03
2019-03-27T20:56:05.731Z,6.87
2019-03-27T20:58:35.946Z,6.93
2019-03-27T21:01:06.010Z,7.70
2019-03-27T21:03:35.922Z,8.33
2019-03-27T21:06:05.868Z,6.93
2019-03-27T21:08:35.920Z,6.77
2019-03-27T21:11:07.027Z,7.27
2019-03-27T21:13:41.199Z,8.10
2019-03-27T21:16:11.633Z,7.97
2019-03-27T21:18:41.610Z,7.23
2019-03-27T21:21:12.665Z,7.97
2019-03-27T21:23:42.776Z,9.27
2019-03-27T21:26:12.690Z,8.47
2019-03-27T21:28:42.786Z,10.63
2019-03-27T21:31:12.683Z,8.70
2019-03-27T21:33:42.688Z,9.60
2019-03-27T21:36:12.604Z,9.70
2019-03-27T21:38:42.643Z,9.70
2019-03-27T21:41:12.587Z,7.77
2019-03-27T21:43:42.699Z,8.67
2019-03-27T21:46:12.623Z,10.83
2019-03-27T21:48:42.774Z,10.27
2019-03-27T21:51:12.667Z,10.63
2019-03-27T21:53:42.760Z,10.43
2019-03-27T21:56:12.783Z,10.50
2019-03-27T21:58:42.891Z,8.40
2019-03-27T22:01:12.890Z,8.87
2019-03-27T22:03:42.986Z,8.67
2019-03-27T22:06:13.147Z,9.50
2019-03-27T22:08:43.180Z,9.57
2019-03-27T22:11:13.146Z,9.67
2019-03-27T22:13:43.419Z,8.80
2019-03-27T22:16:13.485Z,8.57
2019-03-27T22:18:46.711Z,9.97
2019-03-27T22:21:17.695Z,9.23
2019-03-27T22:23:47.918Z,7.97
2019-03-27T22:26:18.070Z,7.80
2019-03-27T22:28:48.116Z,7.90
2019-03-27T22:31:18.034Z,8.83
2019-03-27T22:33:48.152Z,8.47
2019-03-27T22:36:18.148Z,10.63
2019-03-27T22:38:48.207Z,8.83
2019-03-27T22:41:18.666Z,10.43
2019-03-27T22:43:48.699Z,8.83
2019-03-27T22:46:18.650Z,8.17
2019-03-27T22:48:48.617Z,9.00
2019-03-27T22:51:18.774Z,10.33
2019-03-27T22:53:48.676Z,9.20
2019-03-27T22:56:18.638Z,7.10
2019-03-27T22:58:48.502Z,9.13
2019-03-27T23:01:20.066Z,13.70
2019-03-27T23:03:49.915Z,8.73
2019-03-27T23:06:19.915Z,8.80
2019-03-27T23:08:49.814Z,9.27
2019-03-27T23:11:19.821Z,9.10
2019-03-27T23:13:49.990Z,9.97
2019-03-27T23:16:19.936Z,10.30
2019-03-27T23:18:49.926Z,9.70
2019-03-27T23:21:19.890Z,10.47
2019-03-27T23:23:49.704Z,10.33
2019-03-27T23:26:19.737Z,10.93
2019-03-27T23:28:49.562Z,12.23
2019-03-27T23:31:19.506Z,11.17
2019-03-27T23:33:49.331Z,12.17
2019-03-27T23:36:19.206Z,10.93
2019-03-27T23:38:49.145Z,11.47
2019-03-27T23:41:19.114Z,9.83
2019-03-27T23:43:49.123Z,10.27
2019-03-27T23:46:19.256Z,11.17
2019-03-27T23:48:52.182Z,12.30
2019-03-27T23:51:22.139Z,12.53
2019-03-27T23:53:52.016Z,12.47
2019-03-27T23:56:22.033Z,12.20
2019-03-27T23:58:51.996Z,11.80
